sensor_id;sensor_type;location;lat;lon;timestamp;P1;durP1;ratioP1;P2;durP2;ratioP2
10701;SDS011;5402;50.004;8.246;2022-08-19T00:03:29;13.00;;;10.80;;
10701;SDS011;5402;50.004;8.246;2022-08-19T00:06:05;14.23;;;11.18;;
10701;SDS011;5402;50.004;8.246;2022-08-19T00:08:35;13.00;;;11.45;;
10701;SDS011;5402;50.004;8.246;2022-08-19T00:11:04;14.10;;;12.07;;
10701;SDS011;5402;50.004;8.246;2022-08-19T00:13:37;15.45;;;12.55;;
10701;SDS011;5402;50.004;8.246;2022-08-19T00:16:29;14.23;;;11.98;;
10701;SDS011;5402;50.004;8.246;2022-08-19T00:19:09;14.98;;;12.45;;
10701;SDS011;5402;50.004;8.246;2022-08-19T00:21:58;16.25;;;12.95;;
10701;SDS011;5402;50.004;8.246;2022-08-19T00:24:28;14.57;;;12.98;;
10701;SDS011;5402;50.004;8.246;2022-08-19T00:27:06;15.90;;;12.70;;
10701;SDS011;5402;50.004;8.246;2022-08-19T00:29:35;15.50;;;12.90;;
10701;SDS011;5402;50.004;8.246;2022-08-19T00:35:36;15.45;;;13.27;;
10701;SDS011;5402;50.004;8.246;2022-08-19T00:38:15;20.27;;;13.93;;
10701;SDS011;5402;50.004;8.246;2022-08-19T00:40:47;16.00;;;12.80;;
10701;SDS011;5402;50.004;8.246;2022-08-19T00:43:17;14.48;;;12.68;;
10701;SDS011;5402;50.004;8.246;2022-08-19T00:45:52;17.15;;;14.05;;
10701;SDS011;5402;50.004;8.246;2022-08-19T00:48:25;15.20;;;13.07;;
10701;SDS011;5402;50.004;8.246;2022-08-19T00:50:57;15.45;;;13.27;;
10701;SDS011;5402;50.004;8.246;2022-08-19T00:53:41;13.13;;;11.63;;
10701;SDS011;5402;50.004;8.246;2022-08-19T00:56:13;18.08;;;13.68;;
10701;SDS011;5402;50.004;8.246;2022-08-19T00:58:48;16.17;;;13.57;;
10701;SDS011;5402;50.004;8.246;2022-08-19T01:01:16;14.95;;;13.13;;
10701;SDS011;5402;50.004;8.246;2022-08-19T01:03:50;17.33;;;12.55;;
10701;SDS011;5402;50.004;8.246;2022-08-19T01:06:33;20.17;;;13.88;;
10701;SDS011;5402;50.004;8.246;2022-08-19T01:09:08;14.70;;;12.60;;
10701;SDS011;5402;50.004;8.246;2022-08-19T01:11:52;15.15;;;12.65;;
10701;SDS011;5402;50.004;8.246;2022-08-19T01:14:58;17.23;;;13.43;;
10701;SDS011;5402;50.004;8.246;2022-08-19T01:17:26;18.55;;;13.35;;
10701;SDS011;5402;50.004;8.246;2022-08-19T01:20:00;15.68;;;13.48;;
10701;SDS011;5402;50.004;8.246;2022-08-19T01:26:18;14.80;;;12.52;;
10701;SDS011;5402;50.004;8.246;2022-08-19T01:28:55;14.15;;;12.23;;
10701;SDS011;5402;50.004;8.246;2022-08-19T01:31:58;17.33;;;13.20;;
10701;SDS011;5402;50.004;8.246;2022-08-19T01:34:29;17.55;;;13.60;;
10701;SDS011;5402;50.004;8.246;2022-08-19T01:37:22;16.70;;;12.40;;
10701;SDS011;5402;50.004;8.246;2022-08-19T01:39:52;14.23;;;12.18;;
10701;SDS011;5402;50.004;8.246;2022-08-19T01:42:37;15.90;;;12.63;;
10701;SDS011;5402;50.004;8.246;2022-08-19T01:45:20;18.20;;;13.50;;
10701;SDS011;5402;50.004;8.246;2022-08-19T01:48:00;16.85;;;13.07;;
10701;SDS011;5402;50.004;8.246;2022-08-19T01:50:44;15.27;;;13.00;;
10701;SDS011;5402;50.004;8.246;2022-08-19T01:53:15;17.70;;;13.48;;
10701;SDS011;5402;50.004;8.246;2022-08-19T01:56:07;17.42;;;13.52;;
10701;SDS011;5402;50.004;8.246;2022-08-19T01:58:54;15.57;;;13.20;;
10701;SDS011;5402;50.004;8.246;2022-08-19T02:01:29;15.48;;;12.60;;
10701;SDS011;5402;50.004;8.246;2022-08-19T02:04:00;16.15;;;13.25;;
10701;SDS011;5402;50.004;8.246;2022-08-19T02:06:30;16.55;;;13.52;;
10701;SDS011;5402;50.004;8.246;2022-08-19T02:09:06;17.95;;;13.45;;
10701;SDS011;5402;50.004;8.246;2022-08-19T02:11:43;15.50;;;13.13;;
10701;SDS011;5402;50.004;8.246;2022-08-19T02:17:37;15.45;;;13.00;;
10701;SDS011;5402;50.004;8.246;2022-08-19T02:20:18;14.65;;;12.35;;
10701;SDS011;5402;50.004;8.246;2022-08-19T02:22:47;15.55;;;11.98;;
10701;SDS011;5402;50.004;8.246;2022-08-19T02:25:19;18.60;;;12.35;;
10701;SDS011;5402;50.004;8.246;2022-08-19T02:27:58;15.77;;;12.38;;
10701;SDS011;5402;50.004;8.246;2022-08-19T02:30:28;14.40;;;11.30;;
10701;SDS011;5402;50.004;8.246;2022-08-19T02:33:06;13.07;;;11.35;;
10701;SDS011;5402;50.004;8.246;2022-08-19T02:36:02;14.07;;;11.13;;
10701;SDS011;5402;50.004;8.246;2022-08-19T02:38:37;15.02;;;12.00;;
10701;SDS011;5402;50.004;8.246;2022-08-19T02:41:19;12.30;;;10.55;;
10701;SDS011;5402;50.004;8.246;2022-08-19T02:43:52;16.30;;;11.60;;
10701;SDS011;5402;50.004;8.246;2022-08-19T02:46:38;12.48;;;11.07;;
10701;SDS011;5402;50.004;8.246;2022-08-19T02:49:08;13.20;;;11.68;;
10701;SDS011;5402;50.004;8.246;2022-08-19T02:53:24;13.52;;;10.55;;
10701;SDS011;5402;50.004;8.246;2022-08-19T02:54:32;14.57;;;10.63;;
10701;SDS011;5402;50.004;8.246;2022-08-19T02:57:20;14.60;;;10.27;;
10701;SDS011;5402;50.004;8.246;2022-08-19T03:00:19;11.77;;;10.55;;
10701;SDS011;5402;50.004;8.246;2022-08-19T03:05:49;12.80;;;10.20;;
10701;SDS011;5402;50.004;8.246;2022-08-19T03:08:35;13.48;;;10.93;;
10701;SDS011;5402;50.004;8.246;2022-08-19T03:11:16;12.80;;;10.65;;
10701;SDS011;5402;50.004;8.246;2022-08-19T03:14:12;13.90;;;11.00;;
10701;SDS011;5402;50.004;8.246;2022-08-19T03:16:55;15.93;;;11.40;;
10701;SDS011;5402;50.004;8.246;2022-08-19T03:22:42;12.48;;;10.88;;
10701;SDS011;5402;50.004;8.246;2022-08-19T03:25:29;13.00;;;11.37;;
10701;SDS011;5402;50.004;8.246;2022-08-19T03:28:35;13.15;;;10.38;;
10701;SDS011;5402;50.004;8.246;2022-08-19T03:31:14;13.33;;;10.90;;
10701;SDS011;5402;50.004;8.246;2022-08-19T03:33:47;12.87;;;10.53;;
10701;SDS011;5402;50.004;8.246;2022-08-19T03:36:28;12.27;;;10.97;;
10701;SDS011;5402;50.004;8.246;2022-08-19T03:39:00;14.63;;;11.85;;
10701;SDS011;5402;50.004;8.246;2022-08-19T03:41:36;12.97;;;11.10;;
10701;SDS011;5402;50.004;8.246;2022-08-19T03:44:57;13.27;;;11.23;;
10701;SDS011;5402;50.004;8.246;2022-08-19T03:47:28;13.67;;;11.00;;
10701;SDS011;5402;50.004;8.246;2022-08-19T03:50:00;13.17;;;10.57;;
10701;SDS011;5402;50.004;8.246;2022-08-19T03:52:36;13.57;;;11.27;;
10701;SDS011;5402;50.004;8.246;2022-08-19T03:55:05;10.73;;;9.63;;
10701;SDS011;5402;50.004;8.246;2022-08-19T03:57:37;11.75;;;10.13;;
10701;SDS011;5402;50.004;8.246;2022-08-19T04:00:31;11.20;;;9.93;;
10701;SDS011;5402;50.004;8.246;2022-08-19T04:02:59;11.10;;;9.90;;
10701;SDS011;5402;50.004;8.246;2022-08-19T04:05:53;10.93;;;9.82;;
10701;SDS011;5402;50.004;8.246;2022-08-19T04:08:23;11.82;;;10.10;;
10701;SDS011;5402;50.004;8.246;2022-08-19T04:11:18;12.23;;;10.90;;
10701;SDS011;5402;50.004;8.246;2022-08-19T04:14:08;12.03;;;10.00;;
10701;SDS011;5402;50.004;8.246;2022-08-19T04:16:48;11.82;;;9.65;;
10701;SDS011;5402;50.004;8.246;2022-08-19T04:19:37;11.02;;;9.90;;
10701;SDS011;5402;50.004;8.246;2022-08-19T04:22:11;12.70;;;10.10;;
10701;SDS011;5402;50.004;8.246;2022-08-19T04:31:12;11.80;;;10.13;;
10701;SDS011;5402;50.004;8.246;2022-08-19T04:33:51;12.33;;;9.80;;
10701;SDS011;5402;50.004;8.246;2022-08-19T04:36:28;13.40;;;10.52;;
10701;SDS011;5402;50.004;8.246;2022-08-19T04:39:05;11.37;;;9.53;;
10701;SDS011;5402;50.004;8.246;2022-08-19T04:42:27;10.93;;;9.83;;
10701;SDS011;5402;50.004;8.246;2022-08-19T04:48:14;12.40;;;9.47;;
10701;SDS011;5402;50.004;8.246;2022-08-19T04:50:42;10.53;;;9.53;;
10701;SDS011;5402;50.004;8.246;2022-08-19T04:53:31;12.37;;;10.03;;
10701;SDS011;5402;50.004;8.246;2022-08-19T04:56:15;10.30;;;8.77;;
10701;SDS011;5402;50.004;8.246;2022-08-19T04:58:52;11.77;;;9.30;;
10701;SDS011;5402;50.004;8.246;2022-08-19T05:01:22;10.07;;;9.07;;
10701;SDS011;5402;50.004;8.246;2022-08-19T05:03:54;12.83;;;10.10;;
10701;SDS011;5402;50.004;8.246;2022-08-19T05:06:22;11.03;;;9.53;;
10701;SDS011;5402;50.004;8.246;2022-08-19T05:08:53;10.70;;;9.02;;
10701;SDS011;5402;50.004;8.246;2022-08-19T05:11:26;10.73;;;9.60;;
10701;SDS011;5402;50.004;8.246;2022-08-19T05:14:00;10.40;;;9.10;;
10701;SDS011;5402;50.004;8.246;2022-08-19T05:16:47;11.40;;;9.13;;
10701;SDS011;5402;50.004;8.246;2022-08-19T05:19:23;11.30;;;9.37;;
10701;SDS011;5402;50.004;8.246;2022-08-19T05:22:16;9.87;;;8.70;;
10701;SDS011;5402;50.004;8.246;2022-08-19T05:31:12;11.07;;;8.90;;
10701;SDS011;5402;50.004;8.246;2022-08-19T05:33:56;10.23;;;8.90;;
10701;SDS011;5402;50.004;8.246;2022-08-19T05:36:35;10.73;;;9.48;;
10701;SDS011;5402;50.004;8.246;2022-08-19T05:39:08;10.40;;;9.17;;
10701;SDS011;5402;50.004;8.246;2022-08-19T05:41:47;9.57;;;8.60;;
10701;SDS011;5402;50.004;8.246;2022-08-19T05:44:47;10.40;;;9.35;;
10701;SDS011;5402;50.004;8.246;2022-08-19T05:47:26;9.45;;;8.45;;
10701;SDS011;5402;50.004;8.246;2022-08-19T05:50:08;10.75;;;9.75;;
10701;SDS011;5402;50.004;8.246;2022-08-19T05:52:49;9.60;;;8.60;;
10701;SDS011;5402;50.004;8.246;2022-08-19T05:55:27;12.57;;;9.40;;
10701;SDS011;5402;50.004;8.246;2022-08-19T05:58:25;10.32;;;9.15;;
10701;SDS011;5402;50.004;8.246;2022-08-19T06:01:01;9.45;;;8.55;;
10701;SDS011;5402;50.004;8.246;2022-08-19T06:03:36;13.02;;;9.07;;
10701;SDS011;5402;50.004;8.246;2022-08-19T06:06:07;11.25;;;9.20;;
10701;SDS011;5402;50.004;8.246;2022-08-19T06:09:11;13.38;;;9.70;;
10701;SDS011;5402;50.004;8.246;2022-08-19T06:12:10;12.95;;;9.75;;
10701;SDS011;5402;50.004;8.246;2022-08-19T06:14:37;29.05;;;10.45;;
10701;SDS011;5402;50.004;8.246;2022-08-19T06:17:07;16.55;;;9.45;;
10701;SDS011;5402;50.004;8.246;2022-08-19T06:19:49;10.30;;;8.23;;
10701;SDS011;5402;50.004;8.246;2022-08-19T06:22:18;9.18;;;8.07;;
10701;SDS011;5402;50.004;8.246;2022-08-19T06:24:55;9.88;;;8.88;;
10701;SDS011;5402;50.004;8.246;2022-08-19T06:27:26;9.60;;;8.70;;
10701;SDS011;5402;50.004;8.246;2022-08-19T06:32:13;10.38;;;8.65;;
10701;SDS011;5402;50.004;8.246;2022-08-19T06:33:41;10.30;;;9.25;;
10701;SDS011;5402;50.004;8.246;2022-08-19T06:36:16;10.35;;;9.23;;
10701;SDS011;5402;50.004;8.246;2022-08-19T06:39:04;10.60;;;9.30;;
10701;SDS011;5402;50.004;8.246;2022-08-19T06:41:36;12.60;;;7.88;;
10701;SDS011;5402;50.004;8.246;2022-08-19T06:44:07;8.98;;;6.88;;
10701;SDS011;5402;50.004;8.246;2022-08-19T06:49:56;7.25;;;6.45;;
10701;SDS011;5402;50.004;8.246;2022-08-19T06:52:31;16.70;;;7.13;;
10701;SDS011;5402;50.004;8.246;2022-08-19T06:54:59;9.65;;;7.25;;
10701;SDS011;5402;50.004;8.246;2022-08-19T06:57:27;8.02;;;6.93;;
10701;SDS011;5402;50.004;8.246;2022-08-19T06:59:57;9.25;;;6.78;;
10701;SDS011;5402;50.004;8.246;2022-08-19T07:02:28;8.13;;;6.90;;
10701;SDS011;5402;50.004;8.246;2022-08-19T07:04:57;7.43;;;6.70;;
10701;SDS011;5402;50.004;8.246;2022-08-19T07:07:26;8.68;;;7.55;;
10701;SDS011;5402;50.004;8.246;2022-08-19T07:09:56;8.02;;;6.55;;
10701;SDS011;5402;50.004;8.246;2022-08-19T07:12:25;9.18;;;7.80;;
10701;SDS011;5402;50.004;8.246;2022-08-19T07:14:57;8.55;;;6.30;;
10701;SDS011;5402;50.004;8.246;2022-08-19T07:17:45;9.13;;;6.78;;
10701;SDS011;5402;50.004;8.246;2022-08-19T07:23:31;9.50;;;6.28;;
10701;SDS011;5402;50.004;8.246;2022-08-19T07:26:03;14.30;;;8.02;;
10701;SDS011;5402;50.004;8.246;2022-08-19T07:28:33;8.85;;;7.45;;
10701;SDS011;5402;50.004;8.246;2022-08-19T07:31:04;9.80;;;6.78;;
10701;SDS011;5402;50.004;8.246;2022-08-19T07:33:33;8.85;;;7.07;;
10701;SDS011;5402;50.004;8.246;2022-08-19T07:36:21;8.93;;;7.65;;
10701;SDS011;5402;50.004;8.246;2022-08-19T07:38:53;11.68;;;7.40;;
10701;SDS011;5402;50.004;8.246;2022-08-19T07:41:24;10.00;;;7.22;;
10701;SDS011;5402;50.004;8.246;2022-08-19T07:43:56;9.30;;;7.45;;
10701;SDS011;5402;50.004;8.246;2022-08-19T07:46:26;9.45;;;6.88;;
10701;SDS011;5402;50.004;8.246;2022-08-19T07:48:55;11.65;;;7.82;;
10701;SDS011;5402;50.004;8.246;2022-08-19T07:51:26;9.18;;;7.25;;
10701;SDS011;5402;50.004;8.246;2022-08-19T07:53:54;11.73;;;6.72;;
10701;SDS011;5402;50.004;8.246;2022-08-19T07:56:21;14.77;;;7.65;;
10701;SDS011;5402;50.004;8.246;2022-08-19T07:58:49;11.00;;;8.13;;
10701;SDS011;5402;50.004;8.246;2022-08-19T08:01:20;10.32;;;8.32;;
10701;SDS011;5402;50.004;8.246;2022-08-19T08:03:49;11.05;;;8.05;;
10701;SDS011;5402;50.004;8.246;2022-08-19T08:06:36;10.85;;;8.90;;
10701;SDS011;5402;50.004;8.246;2022-08-19T08:09:22;49.97;;;12.45;;
10701;SDS011;5402;50.004;8.246;2022-08-19T08:11:50;11.05;;;8.73;;
10701;SDS011;5402;50.004;8.246;2022-08-19T08:14:27;13.05;;;10.23;;
10701;SDS011;5402;50.004;8.246;2022-08-19T08:18:01;13.95;;;10.60;;
10701;SDS011;5402;50.004;8.246;2022-08-19T08:20:23;12.45;;;11.02;;
10701;SDS011;5402;50.004;8.246;2022-08-19T08:22:53;14.20;;;10.40;;
10701;SDS011;5402;50.004;8.246;2022-08-19T08:25:37;10.85;;;9.50;;
10701;SDS011;5402;50.004;8.246;2022-08-19T08:28:04;11.95;;;10.18;;
10701;SDS011;5402;50.004;8.246;2022-08-19T08:30:34;12.88;;;11.25;;
10701;SDS011;5402;50.004;8.246;2022-08-19T08:33:02;15.70;;;12.60;;
10701;SDS011;5402;50.004;8.246;2022-08-19T08:35:35;16.90;;;14.57;;
10701;SDS011;5402;50.004;8.246;2022-08-19T08:38:03;24.75;;;14.52;;
10701;SDS011;5402;50.004;8.246;2022-08-19T08:40:32;15.98;;;13.95;;
10701;SDS011;5402;50.004;8.246;2022-08-19T08:43:10;21.67;;;14.27;;
10701;SDS011;5402;50.004;8.246;2022-08-19T08:45:49;13.20;;;11.80;;
10701;SDS011;5402;50.004;8.246;2022-08-19T08:48:37;15.93;;;12.77;;
10701;SDS011;5402;50.004;8.246;2022-08-19T08:51:13;12.82;;;10.77;;
10701;SDS011;5402;50.004;8.246;2022-08-19T08:53:49;12.68;;;11.30;;
10701;SDS011;5402;50.004;8.246;2022-08-19T08:56:21;12.40;;;11.10;;
10701;SDS011;5402;50.004;8.246;2022-08-19T08:58:51;11.88;;;10.18;;
10701;SDS011;5402;50.004;8.246;2022-08-19T09:01:22;12.95;;;10.27;;
10701;SDS011;5402;50.004;8.246;2022-08-19T09:03:49;10.82;;;9.73;;
10701;SDS011;5402;50.004;8.246;2022-08-19T09:06:22;12.18;;;9.68;;
10701;SDS011;5402;50.004;8.246;2022-08-19T09:09:03;10.35;;;8.40;;
10701;SDS011;5402;50.004;8.246;2022-08-19T09:11:35;10.57;;;9.35;;
10701;SDS011;5402;50.004;8.246;2022-08-19T09:14:19;13.50;;;8.80;;
10701;SDS011;5402;50.004;8.246;2022-08-19T09:16:58;10.40;;;9.30;;
10701;SDS011;5402;50.004;8.246;2022-08-19T09:19:25;9.18;;;8.25;;
10701;SDS011;5402;50.004;8.246;2022-08-19T09:22:08;10.38;;;9.23;;
10701;SDS011;5402;50.004;8.246;2022-08-19T09:24:37;10.18;;;9.00;;
10701;SDS011;5402;50.004;8.246;2022-08-19T09:27:08;10.75;;;9.63;;
10701;SDS011;5402;50.004;8.246;2022-08-19T09:29:39;11.90;;;8.90;;
10701;SDS011;5402;50.004;8.246;2022-08-19T09:32:08;10.43;;;9.10;;
10701;SDS011;5402;50.004;8.246;2022-08-19T09:34:36;11.57;;;10.48;;
10701;SDS011;5402;50.004;8.246;2022-08-19T09:37:05;10.43;;;9.38;;
10701;SDS011;5402;50.004;8.246;2022-08-19T09:39:36;12.98;;;11.63;;
10701;SDS011;5402;50.004;8.246;2022-08-19T09:42:11;11.82;;;10.63;;
10701;SDS011;5402;50.004;8.246;2022-08-19T09:44:40;13.57;;;12.20;;
10701;SDS011;5402;50.004;8.246;2022-08-19T09:47:10;13.75;;;12.35;;
10701;SDS011;5402;50.004;8.246;2022-08-19T09:49:42;14.40;;;12.20;;
10701;SDS011;5402;50.004;8.246;2022-08-19T09:52:12;12.70;;;11.48;;
10701;SDS011;5402;50.004;8.246;2022-08-19T09:54:41;14.50;;;12.40;;
10701;SDS011;5402;50.004;8.246;2022-08-19T09:57:08;12.45;;;11.23;;
10701;SDS011;5402;50.004;8.246;2022-08-19T09:59:38;11.00;;;9.88;;
10701;SDS011;5402;50.004;8.246;2022-08-19T10:02:10;10.93;;;9.82;;
10701;SDS011;5402;50.004;8.246;2022-08-19T10:04:39;10.45;;;9.40;;
10701;SDS011;5402;50.004;8.246;2022-08-19T10:07:43;10.35;;;9.45;;
10701;SDS011;5402;50.004;8.246;2022-08-19T10:10:12;10.48;;;9.48;;
10701;SDS011;5402;50.004;8.246;2022-08-19T10:12:41;9.13;;;8.32;;
10701;SDS011;5402;50.004;8.246;2022-08-19T10:18:04;9.85;;;7.63;;
10701;SDS011;5402;50.004;8.246;2022-08-19T10:20:31;7.68;;;6.90;;
10701;SDS011;5402;50.004;8.246;2022-08-19T10:23:00;8.05;;;7.25;;
10701;SDS011;5402;50.004;8.246;2022-08-19T10:25:38;8.18;;;7.38;;
10701;SDS011;5402;50.004;8.246;2022-08-19T10:28:09;9.88;;;7.70;;
10701;SDS011;5402;50.004;8.246;2022-08-19T10:30:41;7.97;;;7.25;;
10701;SDS011;5402;50.004;8.246;2022-08-19T10:33:23;7.95;;;6.93;;
10701;SDS011;5402;50.004;8.246;2022-08-19T10:36:00;7.45;;;6.75;;
10701;SDS011;5402;50.004;8.246;2022-08-19T10:38:28;8.45;;;7.60;;
10701;SDS011;5402;50.004;8.246;2022-08-19T10:41:09;7.57;;;6.82;;
10701;SDS011;5402;50.004;8.246;2022-08-19T10:44:41;7.10;;;6.20;;
10701;SDS011;5402;50.004;8.246;2022-08-19T10:46:59;7.55;;;6.95;;
10701;SDS011;5402;50.004;8.246;2022-08-19T10:49:43;8.65;;;6.97;;
10701;SDS011;5402;50.004;8.246;2022-08-19T10:52:46;8.27;;;6.55;;
10701;SDS011;5402;50.004;8.246;2022-08-19T10:58:46;6.72;;;6.13;;
10701;SDS011;5402;50.004;8.246;2022-08-19T11:01:41;7.43;;;6.47;;
10701;SDS011;5402;50.004;8.246;2022-08-19T11:07:57;6.90;;;6.30;;
10701;SDS011;5402;50.004;8.246;2022-08-19T11:11:03;6.90;;;6.30;;
10701;SDS011;5402;50.004;8.246;2022-08-19T11:13:54;8.07;;;7.28;;
10701;SDS011;5402;50.004;8.246;2022-08-19T11:16:25;7.07;;;6.38;;
10701;SDS011;5402;50.004;8.246;2022-08-19T11:19:50;6.00;;;5.40;;
10701;SDS011;5402;50.004;8.246;2022-08-19T11:22:43;6.55;;;5.95;;
10701;SDS011;5402;50.004;8.246;2022-08-19T11:25:19;6.38;;;5.82;;
10701;SDS011;5402;50.004;8.246;2022-08-19T11:28:18;6.88;;;6.28;;
10701;SDS011;5402;50.004;8.246;2022-08-19T11:30:49;5.90;;;5.40;;
10701;SDS011;5402;50.004;8.246;2022-08-19T11:33:24;6.05;;;5.47;;
10701;SDS011;5402;50.004;8.246;2022-08-19T11:36:11;6.50;;;6.00;;
10701;SDS011;5402;50.004;8.246;2022-08-19T11:38:45;7.68;;;5.80;;
10701;SDS011;5402;50.004;8.246;2022-08-19T11:41:18;7.32;;;6.55;;
10701;SDS011;5402;50.004;8.246;2022-08-19T11:43:52;7.22;;;6.53;;
10701;SDS011;5402;50.004;8.246;2022-08-19T11:49:33;6.28;;;5.78;;
10701;SDS011;5402;50.004;8.246;2022-08-19T11:52:31;6.65;;;6.03;;
10701;SDS011;5402;50.004;8.246;2022-08-19T11:58:27;6.10;;;5.50;;
10701;SDS011;5402;50.004;8.246;2022-08-19T12:01:26;7.55;;;5.95;;
10701;SDS011;5402;50.004;8.246;2022-08-19T12:04:19;6.78;;;6.28;;
10701;SDS011;5402;50.004;8.246;2022-08-19T12:06:52;7.40;;;6.70;;
10701;SDS011;5402;50.004;8.246;2022-08-19T12:09:21;6.68;;;6.10;;
10701;SDS011;5402;50.004;8.246;2022-08-19T12:12:16;6.28;;;5.68;;
10701;SDS011;5402;50.004;8.246;2022-08-19T12:14:46;6.30;;;5.70;;
10701;SDS011;5402;50.004;8.246;2022-08-19T12:17:37;6.10;;;5.57;;
10701;SDS011;5402;50.004;8.246;2022-08-19T12:34:01;6.68;;;6.07;;
10701;SDS011;5402;50.004;8.246;2022-08-19T12:47:09;6.20;;;5.70;;
10701;SDS011;5402;50.004;8.246;2022-08-19T12:49:41;6.63;;;6.03;;
10701;SDS011;5402;50.004;8.246;2022-08-19T12:59:01;6.00;;;5.50;;
10701;SDS011;5402;50.004;8.246;2022-08-19T13:15:28;6.70;;;5.40;;
10701;SDS011;5402;50.004;8.246;2022-08-19T13:23:02;5.70;;;4.82;;
10701;SDS011;5402;50.004;8.246;2022-08-19T16:12:09;5.88;;;5.35;;
10701;SDS011;5402;50.004;8.246;2022-08-19T16:14:35;5.93;;;5.43;;
10701;SDS011;5402;50.004;8.246;2022-08-19T16:17:03;6.90;;;5.75;;
10701;SDS011;5402;50.004;8.246;2022-08-19T16:22:13;6.18;;;5.68;;
10701;SDS011;5402;50.004;8.246;2022-08-19T16:27:28;5.80;;;5.30;;
10701;SDS011;5402;50.004;8.246;2022-08-19T16:29:55;7.05;;;5.22;;
10701;SDS011;5402;50.004;8.246;2022-08-19T16:32:23;8.82;;;6.18;;
10701;SDS011;5402;50.004;8.246;2022-08-19T16:34:50;6.78;;;5.32;;
10701;SDS011;5402;50.004;8.246;2022-08-19T16:37:17;6.10;;;5.60;;
10701;SDS011;5402;50.004;8.246;2022-08-19T16:39:45;6.25;;;5.45;;
10701;SDS011;5402;50.004;8.246;2022-08-19T16:42:12;6.60;;;5.90;;
10701;SDS011;5402;50.004;8.246;2022-08-19T16:44:41;5.78;;;5.10;;
10701;SDS011;5402;50.004;8.246;2022-08-19T16:47:10;5.70;;;5.20;;
10701;SDS011;5402;50.004;8.246;2022-08-19T16:49:37;6.43;;;5.38;;
10701;SDS011;5402;50.004;8.246;2022-08-19T16:52:06;5.85;;;5.35;;
10701;SDS011;5402;50.004;8.246;2022-08-19T16:54:33;5.95;;;5.45;;
10701;SDS011;5402;50.004;8.246;2022-08-19T16:57:01;5.88;;;5.30;;
10701;SDS011;5402;50.004;8.246;2022-08-19T16:59:30;5.78;;;5.18;;
10701;SDS011;5402;50.004;8.246;2022-08-19T17:01:59;5.63;;;5.13;;
10701;SDS011;5402;50.004;8.246;2022-08-19T17:04:27;7.35;;;6.03;;
10701;SDS011;5402;50.004;8.246;2022-08-19T17:06:55;5.15;;;4.72;;
10701;SDS011;5402;50.004;8.246;2022-08-19T17:09:24;6.43;;;5.82;;
10701;SDS011;5402;50.004;8.246;2022-08-19T17:11:50;5.80;;;5.28;;
10701;SDS011;5402;50.004;8.246;2022-08-19T17:14:17;5.35;;;4.90;;
10701;SDS011;5402;50.004;8.246;2022-08-19T17:16:44;6.05;;;5.00;;
10701;SDS011;5402;50.004;8.246;2022-08-19T17:19:12;7.95;;;5.60;;
10701;SDS011;5402;50.004;8.246;2022-08-19T17:21:47;5.21;;;4.71;;
10701;SDS011;5402;50.004;8.246;2022-08-19T17:24:18;5.72;;;4.84;;
10701;SDS011;5402;50.004;8.246;2022-08-19T17:26:45;5.20;;;4.70;;
10701;SDS011;5402;50.004;8.246;2022-08-19T17:29:13;5.30;;;4.90;;
10701;SDS011;5402;50.004;8.246;2022-08-19T17:31:40;6.28;;;4.88;;
10701;SDS011;5402;50.004;8.246;2022-08-19T17:34:10;5.80;;;5.10;;
10701;SDS011;5402;50.004;8.246;2022-08-19T17:36:38;5.35;;;4.85;;
10701;SDS011;5402;50.004;8.246;2022-08-19T17:39:04;5.70;;;5.20;;
10701;SDS011;5402;50.004;8.246;2022-08-19T17:41:32;6.13;;;5.30;;
10701;SDS011;5402;50.004;8.246;2022-08-19T17:43:59;6.00;;;5.43;;
10701;SDS011;5402;50.004;8.246;2022-08-19T17:46:27;5.60;;;5.10;;
10701;SDS011;5402;50.004;8.246;2022-08-19T17:48:54;5.53;;;5.03;;
10701;SDS011;5402;50.004;8.246;2022-08-19T17:51:23;5.50;;;5.00;;
10701;SDS011;5402;50.004;8.246;2022-08-19T17:54:09;6.10;;;5.50;;
10701;SDS011;5402;50.004;8.246;2022-08-19T17:56:38;5.88;;;5.25;;
10701;SDS011;5402;50.004;8.246;2022-08-19T17:59:06;5.90;;;5.40;;
10701;SDS011;5402;50.004;8.246;2022-08-19T18:01:34;6.30;;;5.20;;
10701;SDS011;5402;50.004;8.246;2022-08-19T18:04:01;5.82;;;5.32;;
10701;SDS011;5402;50.004;8.246;2022-08-19T18:06:28;6.25;;;5.65;;
10701;SDS011;5402;50.004;8.246;2022-08-19T18:08:55;6.15;;;5.55;;
10701;SDS011;5402;50.004;8.246;2022-08-19T18:11:25;6.50;;;5.90;;
10701;SDS011;5402;50.004;8.246;2022-08-19T18:13:52;6.30;;;5.70;;
10701;SDS011;5402;50.004;8.246;2022-08-19T18:16:18;7.32;;;5.70;;
10701;SDS011;5402;50.004;8.246;2022-08-19T18:18:46;7.72;;;5.93;;
10701;SDS011;5402;50.004;8.246;2022-08-19T18:21:13;6.22;;;5.60;;
10701;SDS011;5402;50.004;8.246;2022-08-19T18:23:40;6.88;;;6.18;;
10701;SDS011;5402;50.004;8.246;2022-08-19T18:26:07;6.07;;;5.57;;
10701;SDS011;5402;50.004;8.246;2022-08-19T18:28:35;7.35;;;6.35;;
10701;SDS011;5402;50.004;8.246;2022-08-19T18:31:03;7.82;;;5.50;;
10701;SDS011;5402;50.004;8.246;2022-08-19T18:33:32;6.60;;;6.00;;
10701;SDS011;5402;50.004;8.246;2022-08-19T18:36:00;8.77;;;6.10;;
10701;SDS011;5402;50.004;8.246;2022-08-19T18:38:32;6.20;;;5.53;;
10701;SDS011;5402;50.004;8.246;2022-08-19T18:41:17;6.07;;;5.47;;
10701;SDS011;5402;50.004;8.246;2022-08-19T18:44:17;6.95;;;5.75;;
10701;SDS011;5402;50.004;8.246;2022-08-19T18:47:01;6.63;;;6.03;;
10701;SDS011;5402;50.004;8.246;2022-08-19T18:49:46;6.63;;;5.80;;
10701;SDS011;5402;50.004;8.246;2022-08-19T18:52:15;5.75;;;5.25;;
10701;SDS011;5402;50.004;8.246;2022-08-19T18:54:41;6.22;;;5.63;;
10701;SDS011;5402;50.004;8.246;2022-08-19T18:57:10;8.95;;;6.00;;
10701;SDS011;5402;50.004;8.246;2022-08-19T18:59:43;6.78;;;6.13;;
10701;SDS011;5402;50.004;8.246;2022-08-19T19:02:12;6.38;;;5.43;;
10701;SDS011;5402;50.004;8.246;2022-08-19T19:04:39;8.18;;;6.20;;
10701;SDS011;5402;50.004;8.246;2022-08-19T19:07:07;8.48;;;6.18;;
10701;SDS011;5402;50.004;8.246;2022-08-19T19:09:34;6.75;;;5.63;;
10701;SDS011;5402;50.004;8.246;2022-08-19T19:12:02;6.53;;;5.82;;
10701;SDS011;5402;50.004;8.246;2022-08-19T19:14:31;6.63;;;5.05;;
10701;SDS011;5402;50.004;8.246;2022-08-19T19:17:03;6.95;;;6.07;;
10701;SDS011;5402;50.004;8.246;2022-08-19T19:19:36;6.78;;;6.07;;
10701;SDS011;5402;50.004;8.246;2022-08-19T19:22:07;7.10;;;5.93;;
10701;SDS011;5402;50.004;8.246;2022-08-19T19:24:36;6.35;;;5.65;;
10701;SDS011;5402;50.004;8.246;2022-08-19T19:27:08;6.85;;;5.90;;
10701;SDS011;5402;50.004;8.246;2022-08-19T19:29:37;8.35;;;5.63;;
10701;SDS011;5402;50.004;8.246;2022-08-19T19:32:06;7.53;;;5.88;;
10701;SDS011;5402;50.004;8.246;2022-08-19T19:34:36;7.13;;;6.00;;
10701;SDS011;5402;50.004;8.246;2022-08-19T19:37:03;7.00;;;6.28;;
10701;SDS011;5402;50.004;8.246;2022-08-19T19:39:33;6.20;;;5.60;;
10701;SDS011;5402;50.004;8.246;2022-08-19T19:42:04;8.77;;;6.70;;
10701;SDS011;5402;50.004;8.246;2022-08-19T19:44:36;6.63;;;5.93;;
10701;SDS011;5402;50.004;8.246;2022-08-19T19:47:03;8.75;;;5.97;;
10701;SDS011;5402;50.004;8.246;2022-08-19T19:49:35;6.10;;;5.45;;
10701;SDS011;5402;50.004;8.246;2022-08-19T19:52:04;6.57;;;5.70;;
10701;SDS011;5402;50.004;8.246;2022-08-19T19:54:31;6.10;;;5.50;;
10701;SDS011;5402;50.004;8.246;2022-08-19T19:56:59;8.82;;;5.20;;
10701;SDS011;5402;50.004;8.246;2022-08-19T19:59:26;6.43;;;5.43;;
10701;SDS011;5402;50.004;8.246;2022-08-19T20:01:53;7.15;;;5.47;;
10701;SDS011;5402;50.004;8.246;2022-08-19T20:04:21;6.57;;;5.88;;
10701;SDS011;5402;50.004;8.246;2022-08-19T20:06:48;6.18;;;5.30;;
10701;SDS011;5402;50.004;8.246;2022-08-19T20:09:15;6.22;;;5.53;;
10701;SDS011;5402;50.004;8.246;2022-08-19T20:11:42;5.53;;;4.82;;
10701;SDS011;5402;50.004;8.246;2022-08-19T20:14:12;5.60;;;5.00;;
10701;SDS011;5402;50.004;8.246;2022-08-19T20:16:43;6.50;;;5.85;;
10701;SDS011;5402;50.004;8.246;2022-08-19T20:19:12;8.18;;;5.35;;
10701;SDS011;5402;50.004;8.246;2022-08-19T20:21:44;5.93;;;5.05;;